RUN17J EBLG-KATL
Flight info
| Callsign | RUN17J |
|---|---|
| Flight time | N/A |
| Altitude | 18000 |
| Route | BUB1S BUB L608 COA L179 GILTI/N0496F280 L179 UGBET Q60 OKSAW/N0471F240 L9 SLANY/N0496F300 DCT OLGON DCT NEBIN/M086F310 DCT 5330N02000W 5230N03000W 51N040W 4930N05000W DCT IBERG/N0498F320 N368A EBONY/N0499F340 DCT KAYCC DCT KYLOH DCT BAF Q448 PTW J48 MOL DCT FLASK OZZZI2 |
| Aircraft | B744/H-SDE3FGHIM1M2RWXY/LB1 |
Departure
| Time | N/A |
|---|---|
| Airport | Liège Airport (EBLG) |
Arrival
| Time | 2026-05-07 16:01 |
|---|---|
| Airport | Hartsfield Jackson Atlanta International Airport (KATL) |
| Time | Latitude | Longitude | Altitude | Speed | Heading |
|---|---|---|---|---|---|
| 2026-05-07 15:15 | 36.56358 | -80.89392 | 33956 ft | 384 kts | 232° |
| 2026-05-07 15:15 | 36.54486 | -80.91761 | 33956 ft | 383 kts | 233° |
| 2026-05-07 15:16 | 36.50753 | -80.96495 | 33957 ft | 384 kts | 232° |
| 2026-05-07 15:16 | 36.46995 | -81.01216 | 33957 ft | 384 kts | 232° |
| 2026-05-07 15:17 | 36.43232 | -81.05927 | 33959 ft | 385 kts | 232° |
| 2026-05-07 15:17 | 36.39457 | -81.10647 | 33952 ft | 385 kts | 232° |
| 2026-05-07 15:18 | 36.35682 | -81.15363 | 33954 ft | 385 kts | 232° |
| 2026-05-07 15:18 | 36.31905 | -81.20080 | 33954 ft | 385 kts | 232° |
| 2026-05-07 15:19 | 36.28127 | -81.24793 | 33953 ft | 385 kts | 232° |
| 2026-05-07 15:19 | 36.24340 | -81.29506 | 33955 ft | 386 kts | 232° |
| 2026-05-07 15:20 | 36.20545 | -81.34223 | 33954 ft | 386 kts | 232° |
| 2026-05-07 15:20 | 36.16754 | -81.38928 | 33945 ft | 385 kts | 232° |
| 2026-05-07 15:21 | 36.13602 | -81.42836 | 33948 ft | 386 kts | 232° |
| 2026-05-07 15:21 | 36.09182 | -81.48310 | 33949 ft | 387 kts | 232° |
| 2026-05-07 15:22 | 36.05397 | -81.53034 | 33946 ft | 387 kts | 232° |
| 2026-05-07 15:22 | 36.02220 | -81.56989 | 33945 ft | 387 kts | 232° |
| 2026-05-07 15:23 | 35.98454 | -81.61692 | 33940 ft | 389 kts | 232° |
| 2026-05-07 15:23 | 35.94608 | -81.66442 | 33945 ft | 392 kts | 231° |
| 2026-05-07 15:24 | 35.90745 | -81.71192 | 33942 ft | 391 kts | 231° |
| 2026-05-07 15:24 | 35.86889 | -81.75925 | 33941 ft | 391 kts | 231° |
| 2026-05-07 15:25 | 35.83036 | -81.80651 | 33940 ft | 391 kts | 231° |
| 2026-05-07 15:25 | 35.79181 | -81.85378 | 33932 ft | 391 kts | 231° |
| 2026-05-07 15:26 | 35.75283 | -81.90055 | 33927 ft | 391 kts | 231° |
| 2026-05-07 15:26 | 35.71373 | -81.94716 | 33925 ft | 391 kts | 231° |
| 2026-05-07 15:27 | 35.67461 | -81.99381 | 33922 ft | 392 kts | 231° |
| 2026-05-07 15:27 | 35.63567 | -82.04067 | 33919 ft | 392 kts | 231° |
| 2026-05-07 15:28 | 35.59665 | -82.08744 | 33916 ft | 392 kts | 231° |
| 2026-05-07 15:28 | 35.55738 | -82.13413 | 33915 ft | 393 kts | 231° |
| 2026-05-07 15:29 | 35.52013 | -82.17832 | 33916 ft | 394 kts | 231° |
| 2026-05-07 15:29 | 35.48066 | -82.22509 | 33920 ft | 395 kts | 231° |
| 2026-05-07 15:30 | 35.44078 | -82.27229 | 33921 ft | 396 kts | 230° |
| 2026-05-07 15:30 | 35.40180 | -82.31939 | 33923 ft | 396 kts | 232° |
| 2026-05-07 15:31 | 35.36332 | -82.36787 | 33924 ft | 397 kts | 232° |
| 2026-05-07 15:31 | 35.32449 | -82.41627 | 33926 ft | 399 kts | 232° |
| 2026-05-07 15:32 | 35.28539 | -82.46468 | 33928 ft | 400 kts | 231° |
| 2026-05-07 15:32 | 35.24610 | -82.51321 | 33931 ft | 401 kts | 231° |
| 2026-05-07 15:33 | 35.20672 | -82.56179 | 33936 ft | 402 kts | 231° |
| 2026-05-07 15:33 | 35.16725 | -82.61044 | 33940 ft | 403 kts | 231° |
| 2026-05-07 15:34 | 35.12733 | -82.65873 | 33947 ft | 404 kts | 230° |
| 2026-05-07 15:34 | 35.08687 | -82.70662 | 33948 ft | 406 kts | 230° |
| 2026-05-07 15:35 | 35.04632 | -82.75459 | 33950 ft | 406 kts | 230° |
| 2026-05-07 15:35 | 35.00571 | -82.80259 | 33948 ft | 407 kts | 230° |
| 2026-05-07 15:36 | 34.96507 | -82.85058 | 33947 ft | 407 kts | 230° |
| 2026-05-07 15:36 | 34.92435 | -82.89863 | 33948 ft | 408 kts | 230° |
| 2026-05-07 15:37 | 34.88325 | -82.94627 | 33875 ft | 408 kts | 230° |
| 2026-05-07 15:37 | 34.86302 | -82.96965 | 33532 ft | 403 kts | 230° |
| 2026-05-07 15:37 | 34.84283 | -82.99296 | 32970 ft | 399 kts | 230° |
| 2026-05-07 15:38 | 34.82271 | -83.01618 | 32230 ft | 398 kts | 230° |
| 2026-05-07 15:38 | 34.80266 | -83.03930 | 31499 ft | 397 kts | 230° |
| 2026-05-07 15:38 | 34.78262 | -83.06241 | 30768 ft | 397 kts | 230° |
| 2026-05-07 15:38 | 34.76222 | -83.08591 | 29998 ft | 416 kts | 230° |
| 2026-05-07 15:39 | 34.74082 | -83.11066 | 29160 ft | 429 kts | 230° |
| 2026-05-07 15:39 | 34.71889 | -83.13606 | 28366 ft | 428 kts | 229° |
| 2026-05-07 15:39 | 34.69774 | -83.16044 | 27671 ft | 422 kts | 229° |
| 2026-05-07 15:39 | 34.67650 | -83.18483 | 26975 ft | 418 kts | 229° |
| 2026-05-07 15:40 | 34.65549 | -83.20894 | 26296 ft | 414 kts | 229° |
| 2026-05-07 15:40 | 34.63469 | -83.23279 | 25631 ft | 410 kts | 229° |
| 2026-05-07 15:40 | 34.61404 | -83.25645 | 24976 ft | 406 kts | 229° |
| 2026-05-07 15:40 | 34.59359 | -83.27987 | 24327 ft | 402 kts | 229° |
| 2026-05-07 15:41 | 34.57332 | -83.30307 | 23683 ft | 399 kts | 229° |
| 2026-05-07 15:41 | 34.55323 | -83.32611 | 23055 ft | 395 kts | 229° |
| 2026-05-07 15:41 | 34.53335 | -83.34895 | 22435 ft | 392 kts | 229° |
| 2026-05-07 15:41 | 34.51378 | -83.37161 | 21824 ft | 388 kts | 229° |
| 2026-05-07 15:42 | 34.49434 | -83.39410 | 21222 ft | 384 kts | 229° |
| 2026-05-07 15:42 | 34.47510 | -83.41627 | 20625 ft | 380 kts | 229° |
| 2026-05-07 15:42 | 34.45601 | -83.43818 | 20035 ft | 376 kts | 229° |
| 2026-05-07 15:42 | 34.43709 | -83.45986 | 19448 ft | 372 kts | 229° |
| 2026-05-07 15:43 | 34.41839 | -83.48125 | 18870 ft | 368 kts | 229° |
| 2026-05-07 15:43 | 34.39983 | -83.50247 | 18293 ft | 365 kts | 230° |
| 2026-05-07 15:43 | 34.38152 | -83.52340 | 17720 ft | 361 kts | 230° |
| 2026-05-07 15:43 | 34.36333 | -83.54417 | 17148 ft | 357 kts | 230° |
| 2026-05-07 15:44 | 34.34534 | -83.56471 | 16588 ft | 354 kts | 229° |
| 2026-05-07 15:44 | 34.32753 | -83.58504 | 16021 ft | 351 kts | 229° |
| 2026-05-07 15:44 | 34.30983 | -83.60522 | 15449 ft | 348 kts | 229° |
| 2026-05-07 15:44 | 34.29228 | -83.62525 | 14885 ft | 346 kts | 229° |
| 2026-05-07 15:45 | 34.27462 | -83.64495 | 14315 ft | 345 kts | 227° |
| 2026-05-07 15:45 | 34.25661 | -83.66407 | 13750 ft | 343 kts | 226° |
| 2026-05-07 15:45 | 34.24020 | -83.68134 | 13264 ft | 341 kts | 226° |
| 2026-05-07 15:45 | 34.22266 | -83.69988 | 13099 ft | 328 kts | 226° |
| 2026-05-07 15:46 | 34.18966 | -83.73485 | 12826 ft | 304 kts | 226° |
| 2026-05-07 15:46 | 34.17409 | -83.75133 | 12695 ft | 292 kts | 226° |
| 2026-05-07 15:46 | 34.15912 | -83.76719 | 12548 ft | 280 kts | 226° |
| 2026-05-07 15:47 | 34.14478 | -83.78239 | 12420 ft | 268 kts | 226° |
| 2026-05-07 15:47 | 34.13111 | -83.79687 | 12300 ft | 256 kts | 226° |
| 2026-05-07 15:47 | 34.11803 | -83.81073 | 12184 ft | 244 kts | 226° |
| 2026-05-07 15:47 | 34.10529 | -83.82425 | 12075 ft | 249 kts | 226° |
| 2026-05-07 15:48 | 34.09227 | -83.83807 | 12012 ft | 255 kts | 226° |
| 2026-05-07 15:48 | 34.07901 | -83.85237 | 11998 ft | 257 kts | 226° |
| 2026-05-07 15:48 | 34.06564 | -83.86677 | 11993 ft | 258 kts | 226° |
| 2026-05-07 15:48 | 34.05394 | -83.87933 | 11989 ft | 258 kts | 226° |
| 2026-05-07 15:49 | 34.04051 | -83.89372 | 11992 ft | 258 kts | 226° |
| 2026-05-07 15:49 | 34.02714 | -83.90804 | 11991 ft | 258 kts | 226° |
| 2026-05-07 15:49 | 34.01372 | -83.92241 | 11989 ft | 256 kts | 226° |
| 2026-05-07 15:49 | 34.00058 | -83.93647 | 11806 ft | 251 kts | 226° |
| 2026-05-07 15:50 | 33.98755 | -83.95041 | 11398 ft | 251 kts | 226° |
| 2026-05-07 15:50 | 33.97288 | -83.96226 | 10855 ft | 264 kts | 207° |
| 2026-05-07 15:50 | 33.95458 | -83.96751 | 10349 ft | 275 kts | 196° |
| 2026-05-07 15:50 | 33.93537 | -83.96904 | 10034 ft | 277 kts | 188° |
| 2026-05-07 15:51 | 33.91616 | -83.96667 | 9832 ft | 283 kts | 177° |
| 2026-05-07 15:51 | 33.89655 | -83.96317 | 9639 ft | 284 kts | 184° |
| 2026-05-07 15:51 | 33.87707 | -83.96244 | 9445 ft | 278 kts | 187° |
| 2026-05-07 15:51 | 33.85764 | -83.96260 | 9240 ft | 280 kts | 187° |
| 2026-05-07 15:52 | 33.83777 | -83.96244 | 8949 ft | 289 kts | 186° |
| 2026-05-07 15:52 | 33.81772 | -83.96180 | 8688 ft | 286 kts | 185° |
| 2026-05-07 15:52 | 33.79793 | -83.96096 | 8436 ft | 283 kts | 185° |
| 2026-05-07 15:52 | 33.77833 | -83.96014 | 8186 ft | 280 kts | 185° |
| 2026-05-07 15:53 | 33.75901 | -83.95990 | 7943 ft | 276 kts | 190° |
| 2026-05-07 15:53 | 33.74021 | -83.96327 | 7724 ft | 271 kts | 198° |
| 2026-05-07 15:53 | 33.72210 | -83.96886 | 7524 ft | 267 kts | 202° |
| 2026-05-07 15:53 | 33.70445 | -83.97544 | 7324 ft | 265 kts | 204° |
| 2026-05-07 15:54 | 33.68685 | -83.98194 | 7123 ft | 264 kts | 202° |
| 2026-05-07 15:54 | 33.66922 | -83.98813 | 7007 ft | 264 kts | 202° |
| 2026-05-07 15:54 | 33.65201 | -83.99542 | 6820 ft | 261 kts | 216° |
| 2026-05-07 15:54 | 33.63889 | -84.00988 | 6532 ft | 256 kts | 236° |
| 2026-05-07 15:55 | 33.63111 | -84.02864 | 6253 ft | 249 kts | 258° |
| 2026-05-07 15:55 | 33.62951 | -84.04642 | 6059 ft | 245 kts | 269° |
| 2026-05-07 15:55 | 33.62998 | -84.06633 | 6013 ft | 238 kts | 273° |
| 2026-05-07 15:55 | 33.63088 | -84.08537 | 6005 ft | 223 kts | 273° |
| 2026-05-07 15:56 | 33.63144 | -84.10375 | 5986 ft | 219 kts | 272° |
| 2026-05-07 15:56 | 33.63171 | -84.12195 | 5760 ft | 218 kts | 271° |
| 2026-05-07 15:56 | 33.63182 | -84.14013 | 5479 ft | 218 kts | 271° |
| 2026-05-07 15:56 | 33.63186 | -84.15835 | 5191 ft | 219 kts | 271° |
| 2026-05-07 15:57 | 33.63188 | -84.17660 | 4898 ft | 219 kts | 270° |
| 2026-05-07 15:57 | 33.63187 | -84.19500 | 4609 ft | 222 kts | 270° |
| 2026-05-07 15:57 | 33.63187 | -84.21353 | 4320 ft | 222 kts | 270° |
| 2026-05-07 15:57 | 33.63187 | -84.23202 | 4024 ft | 222 kts | 270° |
| 2026-05-07 15:58 | 33.63187 | -84.25055 | 3731 ft | 222 kts | 270° |
| 2026-05-07 15:58 | 33.63187 | -84.26887 | 3436 ft | 216 kts | 270° |
| 2026-05-07 15:58 | 33.63186 | -84.28628 | 3161 ft | 200 kts | 270° |
| 2026-05-07 15:58 | 33.63186 | -84.30217 | 2884 ft | 182 kts | 270° |
| 2026-05-07 15:59 | 33.63185 | -84.31714 | 2697 ft | 180 kts | 270° |
| 2026-05-07 15:59 | 33.63185 | -84.33227 | 2439 ft | 182 kts | 271° |
| 2026-05-07 15:59 | 33.63184 | -84.34673 | 2205 ft | 166 kts | 271° |
| 2026-05-07 15:59 | 33.63184 | -84.36030 | 1981 ft | 162 kts | 272° |
| 2026-05-07 16:00 | 33.63184 | -84.37382 | 1772 ft | 162 kts | 272° |
| 2026-05-07 16:00 | 33.63179 | -84.38732 | 1544 ft | 161 kts | 271° |
| 2026-05-07 16:00 | 33.63175 | -84.40076 | 1336 ft | 161 kts | 273° |
| 2026-05-07 16:00 | 33.63181 | -84.41414 | 1145 ft | 160 kts | 271° |
| 2026-05-07 16:01 | 33.63181 | -84.42719 | 1041 ft | 143 kts | 270° |
| 2026-05-07 16:01 | 33.63185 | -84.43614 | 1039 ft | 73 kts | 268° |
| 2026-05-07 16:01 | 33.63182 | -84.44042 | 1039 ft | 27 kts | 270° |
| 2026-05-07 16:01 | 33.63154 | -84.44146 | 1039 ft | 12 kts | 208° |
| 2026-05-07 16:02 | 33.63082 | -84.44140 | 1039 ft | 11 kts | 122° |
| 2026-05-07 16:02 | 33.63072 | -84.44051 | 1039 ft | 11 kts | 89° |
| 2026-05-07 16:02 | 33.63072 | -84.43964 | 1039 ft | 10 kts | 89° |
| 2026-05-07 16:02 | 33.63073 | -84.43881 | 1039 ft | 10 kts | 90° |
| 2026-05-07 16:03 | 33.63073 | -84.43801 | 1039 ft | 9 kts | 90° |
| 2026-05-07 16:03 | 33.63073 | -84.43725 | 1039 ft | 9 kts | 90° |
| 2026-05-07 16:03 | 33.63073 | -84.43631 | 1039 ft | 14 kts | 90° |
| 2026-05-07 16:03 | 33.63073 | -84.43518 | 1039 ft | 13 kts | 90° |
| 2026-05-07 16:04 | 33.63073 | -84.43410 | 1039 ft | 13 kts | 90° |
| 2026-05-07 16:04 | 33.63073 | -84.43307 | 1039 ft | 12 kts | 90° |
| 2026-05-07 16:04 | 33.63072 | -84.43208 | 1039 ft | 12 kts | 91° |
| 2026-05-07 16:04 | 33.63071 | -84.43112 | 1039 ft | 11 kts | 90° |
| 2026-05-07 16:05 | 33.63072 | -84.43021 | 1039 ft | 10 kts | 90° |
| 2026-05-07 16:05 | 33.63067 | -84.42951 | 1039 ft | 8 kts | 116° |
| 2026-05-07 16:05 | 33.63019 | -84.42924 | 1039 ft | 8 kts | 168° |
| 2026-05-07 16:05 | 33.62973 | -84.42898 | 1039 ft | 7 kts | 126° |
| 2026-05-07 16:06 | 33.62941 | -84.42852 | 1039 ft | 7 kts | 150° |
| 2026-05-07 16:06 | 33.62895 | -84.42842 | 1039 ft | 7 kts | 182° |
| 2026-05-07 16:06 | 33.62848 | -84.42843 | 1039 ft | 7 kts | 181° |
| 2026-05-07 16:06 | 33.62802 | -84.42845 | 1039 ft | 6 kts | 181° |
| 2026-05-07 16:07 | 33.62759 | -84.42852 | 1039 ft | 6 kts | 206° |
| 2026-05-07 16:07 | 33.62742 | -84.42896 | 1039 ft | 6 kts | 266° |
| 2026-05-07 16:07 | 33.62741 | -84.42945 | 1039 ft | 5 kts | 270° |
| 2026-05-07 16:07 | 33.62742 | -84.42954 | 1039 ft | 0 kts | 270° |